McLean, Nebraska
Current Conditions -  °F | °C
As of 2:35 AM on Wednesday 26 Nov 2014 (Local Time) from KLCG Reporting Station
Overcast Overcast  
Wind Chill: 29°   Ceiling: 2000
Heat Index: 37°   Visibility: 10mi
Dew Point: 34°   Wind: 13mph
Humidity: 89%   Direction: 320°NW
Pressure: 29.84"   Gusts: 18mph
Location:  42.39°N, 97.47°W
Report Text: KLCG 260835Z AUTO 32011G16KT 10SM OVC020 03/01 A2984 RMK AO2 T00270010
Loading
Personal Weather Stations






























Interactive Weather Map New forecast layout! Learn more

10-Day Weather Forecast

Advertisements
Track Severe Weather on mobile